sensor_id;sensor_type;location;lat;lon;timestamp;P1;durP1;ratioP1;P2;durP2;ratioP2
29452;SDS011;16424;50.956;5.320;2023-02-13T00:01:29;97.78;;;35.55;;
29452;SDS011;16424;50.956;5.320;2023-02-13T00:03:54;98.35;;;35.05;;
29452;SDS011;16424;50.956;5.320;2023-02-13T00:06:20;100.15;;;35.85;;
29452;SDS011;16424;50.956;5.320;2023-02-13T00:08:46;100.00;;;35.95;;
29452;SDS011;16424;50.956;5.320;2023-02-13T00:11:12;97.80;;;36.38;;
29452;SDS011;16424;50.956;5.320;2023-02-13T00:13:38;98.80;;;36.33;;
29452;SDS011;16424;50.956;5.320;2023-02-13T00:16:04;93.22;;;34.42;;
29452;SDS011;16424;50.956;5.320;2023-02-13T00:18:32;89.90;;;33.35;;
29452;SDS011;16424;50.956;5.320;2023-02-13T00:21:09;84.22;;;31.40;;
29452;SDS011;16424;50.956;5.320;2023-02-13T00:23:36;78.68;;;31.80;;
29452;SDS011;16424;50.956;5.320;2023-02-13T00:26:04;83.82;;;31.77;;
29452;SDS011;16424;50.956;5.320;2023-02-13T00:28:35;89.15;;;31.45;;
29452;SDS011;16424;50.956;5.320;2023-02-13T00:31:04;86.80;;;30.55;;
29452;SDS011;16424;50.956;5.320;2023-02-13T00:33:35;78.47;;;29.40;;
29452;SDS011;16424;50.956;5.320;2023-02-13T00:36:08;79.93;;;31.55;;
29452;SDS011;16424;50.956;5.320;2023-02-13T00:38:36;107.78;;;35.22;;
29452;SDS011;16424;50.956;5.320;2023-02-13T00:41:03;87.88;;;31.70;;
29452;SDS011;16424;50.956;5.320;2023-02-13T00:43:29;94.15;;;33.13;;
29452;SDS011;16424;50.956;5.320;2023-02-13T00:45:55;83.55;;;30.50;;
29452;SDS011;16424;50.956;5.320;2023-02-13T00:48:22;81.03;;;30.25;;
29452;SDS011;16424;50.956;5.320;2023-02-13T00:50:49;80.25;;;29.52;;
29452;SDS011;16424;50.956;5.320;2023-02-13T00:53:16;78.40;;;28.10;;
29452;SDS011;16424;50.956;5.320;2023-02-13T00:55:46;99.60;;;32.40;;
29452;SDS011;16424;50.956;5.320;2023-02-13T00:58:12;92.25;;;32.28;;
29452;SDS011;16424;50.956;5.320;2023-02-13T01:00:38;78.05;;;30.27;;
29452;SDS011;16424;50.956;5.320;2023-02-13T01:03:04;85.07;;;30.10;;
29452;SDS011;16424;50.956;5.320;2023-02-13T01:05:30;88.43;;;32.60;;
29452;SDS011;16424;50.956;5.320;2023-02-13T01:07:56;81.22;;;29.77;;
29452;SDS011;16424;50.956;5.320;2023-02-13T01:10:22;73.53;;;29.77;;
29452;SDS011;16424;50.956;5.320;2023-02-13T01:12:48;77.05;;;28.83;;
29452;SDS011;16424;50.956;5.320;2023-02-13T01:15:13;97.25;;;33.20;;
29452;SDS011;16424;50.956;5.320;2023-02-13T01:17:39;92.78;;;32.47;;
29452;SDS011;16424;50.956;5.320;2023-02-13T01:20:09;92.32;;;32.30;;
29452;SDS011;16424;50.956;5.320;2023-02-13T01:22:36;86.13;;;30.17;;
29452;SDS011;16424;50.956;5.320;2023-02-13T01:25:02;85.07;;;29.98;;
29452;SDS011;16424;50.956;5.320;2023-02-13T01:27:29;87.93;;;27.98;;
29452;SDS011;16424;50.956;5.320;2023-02-13T01:29:55;74.45;;;28.40;;
29452;SDS011;16424;50.956;5.320;2023-02-13T01:32:21;85.30;;;30.33;;
29452;SDS011;16424;50.956;5.320;2023-02-13T01:34:47;79.97;;;28.85;;
29452;SDS011;16424;50.956;5.320;2023-02-13T01:37:13;78.75;;;29.42;;
29452;SDS011;16424;50.956;5.320;2023-02-13T01:39:39;74.68;;;28.23;;
29452;SDS011;16424;50.956;5.320;2023-02-13T01:42:05;86.80;;;31.63;;
29452;SDS011;16424;50.956;5.320;2023-02-13T01:44:51;95.25;;;30.65;;
29452;SDS011;16424;50.956;5.320;2023-02-13T01:52:49;130.95;;;36.53;;
29452;SDS011;16424;50.956;5.320;2023-02-13T01:55:20;163.32;;;41.22;;
29452;SDS011;16424;50.956;5.320;2023-02-13T01:57:52;233.35;;;47.38;;
29452;SDS011;16424;50.956;5.320;2023-02-13T02:00:44;224.65;;;45.35;;
29452;SDS011;16424;50.956;5.320;2023-02-13T02:03:23;376.30;;;52.03;;
29452;SDS011;16424;50.956;5.320;2023-02-13T02:05:57;267.63;;;44.40;;
29452;SDS011;16424;50.956;5.320;2023-02-13T02:08:25;266.40;;;47.15;;
29452;SDS011;16424;50.956;5.320;2023-02-13T02:10:51;200.02;;;38.75;;
29452;SDS011;16424;50.956;5.320;2023-02-13T02:13:20;239.55;;;48.10;;
29452;SDS011;16424;50.956;5.320;2023-02-13T02:15:46;449.77;;;51.08;;
29452;SDS011;16424;50.956;5.320;2023-02-13T02:47:53;319.88;;;48.85;;
29452;SDS011;16424;50.956;5.320;2023-02-13T02:50:50;439.75;;;54.42;;
29452;SDS011;16424;50.956;5.320;2023-02-13T02:53:36;370.35;;;51.70;;
29452;SDS011;16424;50.956;5.320;2023-02-13T02:56:13;338.52;;;51.78;;
29452;SDS011;16424;50.956;5.320;2023-02-13T03:01:45;326.65;;;46.70;;
29452;SDS011;16424;50.956;5.320;2023-02-13T03:04:32;332.33;;;46.72;;
29452;SDS011;16424;50.956;5.320;2023-02-13T03:07:22;219.10;;;42.55;;
29452;SDS011;16424;50.956;5.320;2023-02-13T03:09:51;224.75;;;40.20;;
29452;SDS011;16424;50.956;5.320;2023-02-13T03:12:50;293.30;;;44.75;;
29452;SDS011;16424;50.956;5.320;2023-02-13T03:15:43;224.52;;;37.42;;
29452;SDS011;16424;50.956;5.320;2023-02-13T03:18:30;271.20;;;42.25;;
29452;SDS011;16424;50.956;5.320;2023-02-13T03:27:12;311.40;;;45.63;;
29452;SDS011;16424;50.956;5.320;2023-02-13T03:29:53;236.35;;;40.88;;
29452;SDS011;16424;50.956;5.320;2023-02-13T03:37:59;108.53;;;32.47;;
29452;SDS011;16424;50.956;5.320;2023-02-13T03:40:45;119.10;;;31.38;;
29452;SDS011;16424;50.956;5.320;2023-02-13T03:46:25;148.32;;;33.28;;
29452;SDS011;16424;50.956;5.320;2023-02-13T03:48:52;212.55;;;40.75;;
29452;SDS011;16424;50.956;5.320;2023-02-13T03:51:39;94.85;;;32.42;;
29452;SDS011;16424;50.956;5.320;2023-02-13T03:54:29;138.40;;;36.00;;
29452;SDS011;16424;50.956;5.320;2023-02-13T03:57:18;166.82;;;36.70;;
29452;SDS011;16424;50.956;5.320;2023-02-13T04:00:05;171.40;;;34.67;;
29452;SDS011;16424;50.956;5.320;2023-02-13T04:02:36;171.63;;;38.13;;
29452;SDS011;16424;50.956;5.320;2023-02-13T04:07:40;137.07;;;34.58;;
29452;SDS011;16424;50.956;5.320;2023-02-13T04:10:06;107.38;;;33.08;;
29452;SDS011;16424;50.956;5.320;2023-02-13T04:17:54;85.15;;;32.70;;
29452;SDS011;16424;50.956;5.320;2023-02-13T04:20:47;122.95;;;33.60;;
29452;SDS011;16424;50.956;5.320;2023-02-13T04:23:13;76.90;;;29.33;;
29452;SDS011;16424;50.956;5.320;2023-02-13T04:25:40;81.45;;;30.50;;
29452;SDS011;16424;50.956;5.320;2023-02-13T04:28:10;77.30;;;27.90;;
29452;SDS011;16424;50.956;5.320;2023-02-13T04:30:35;96.70;;;29.27;;
29452;SDS011;16424;50.956;5.320;2023-02-13T04:33:01;112.78;;;33.20;;
29452;SDS011;16424;50.956;5.320;2023-02-13T04:35:27;72.35;;;28.25;;
29452;SDS011;16424;50.956;5.320;2023-02-13T04:37:52;87.45;;;28.17;;
29452;SDS011;16424;50.956;5.320;2023-02-13T04:40:18;68.93;;;26.30;;
29452;SDS011;16424;50.956;5.320;2023-02-13T04:42:45;72.18;;;26.98;;
29452;SDS011;16424;50.956;5.320;2023-02-13T04:45:12;69.45;;;24.85;;
29452;SDS011;16424;50.956;5.320;2023-02-13T04:47:38;58.05;;;25.55;;
29452;SDS011;16424;50.956;5.320;2023-02-13T04:50:04;65.95;;;23.85;;
29452;SDS011;16424;50.956;5.320;2023-02-13T04:52:30;60.65;;;25.10;;
29452;SDS011;16424;50.956;5.320;2023-02-13T04:54:56;53.50;;;24.00;;
29452;SDS011;16424;50.956;5.320;2023-02-13T04:57:21;56.90;;;24.50;;
29452;SDS011;16424;50.956;5.320;2023-02-13T04:59:47;52.78;;;21.88;;
29452;SDS011;16424;50.956;5.320;2023-02-13T05:02:13;90.60;;;25.85;;
29452;SDS011;16424;50.956;5.320;2023-02-13T05:04:38;83.13;;;24.98;;
29452;SDS011;16424;50.956;5.320;2023-02-13T05:07:04;45.08;;;23.50;;
29452;SDS011;16424;50.956;5.320;2023-02-13T05:09:29;59.60;;;24.25;;
29452;SDS011;16424;50.956;5.320;2023-02-13T05:11:55;71.43;;;28.33;;
29452;SDS011;16424;50.956;5.320;2023-02-13T05:14:21;68.97;;;24.75;;
29452;SDS011;16424;50.956;5.320;2023-02-13T05:16:47;57.78;;;24.50;;
29452;SDS011;16424;50.956;5.320;2023-02-13T05:19:14;79.88;;;29.70;;
29452;SDS011;16424;50.956;5.320;2023-02-13T05:21:40;68.63;;;29.65;;
29452;SDS011;16424;50.956;5.320;2023-02-13T05:24:24;91.17;;;31.07;;
29452;SDS011;16424;50.956;5.320;2023-02-13T05:26:50;92.95;;;32.47;;
29452;SDS011;16424;50.956;5.320;2023-02-13T05:29:15;75.68;;;31.17;;
29452;SDS011;16424;50.956;5.320;2023-02-13T05:31:48;92.82;;;30.17;;
29452;SDS011;16424;50.956;5.320;2023-02-13T05:34:16;81.90;;;28.83;;
29452;SDS011;16424;50.956;5.320;2023-02-13T05:36:41;122.85;;;28.33;;
29452;SDS011;16424;50.956;5.320;2023-02-13T05:39:07;82.00;;;29.15;;
29452;SDS011;16424;50.956;5.320;2023-02-13T05:41:33;128.63;;;37.88;;
29452;SDS011;16424;50.956;5.320;2023-02-13T05:43:59;108.60;;;38.63;;
29452;SDS011;16424;50.956;5.320;2023-02-13T05:46:25;114.53;;;46.50;;
29452;SDS011;16424;50.956;5.320;2023-02-13T05:48:51;97.57;;;34.80;;
29452;SDS011;16424;50.956;5.320;2023-02-13T05:51:17;67.63;;;27.98;;
29452;SDS011;16424;50.956;5.320;2023-02-13T05:53:43;55.25;;;26.88;;
29452;SDS011;16424;50.956;5.320;2023-02-13T05:56:09;62.80;;;26.15;;
29452;SDS011;16424;50.956;5.320;2023-02-13T05:58:35;63.75;;;26.02;;
29452;SDS011;16424;50.956;5.320;2023-02-13T06:01:01;60.53;;;25.88;;
29452;SDS011;16424;50.956;5.320;2023-02-13T06:03:28;66.10;;;28.15;;
29452;SDS011;16424;50.956;5.320;2023-02-13T06:05:54;45.58;;;21.80;;
29452;SDS011;16424;50.956;5.320;2023-02-13T06:08:20;45.75;;;23.40;;
29452;SDS011;16424;50.956;5.320;2023-02-13T06:10:47;38.80;;;20.67;;
29452;SDS011;16424;50.956;5.320;2023-02-13T06:13:13;53.67;;;23.73;;
29452;SDS011;16424;50.956;5.320;2023-02-13T06:15:39;64.35;;;25.75;;
29452;SDS011;16424;50.956;5.320;2023-02-13T06:18:05;61.97;;;23.73;;
29452;SDS011;16424;50.956;5.320;2023-02-13T06:20:31;45.95;;;21.85;;
29452;SDS011;16424;50.956;5.320;2023-02-13T06:22:57;52.03;;;23.02;;
29452;SDS011;16424;50.956;5.320;2023-02-13T06:25:23;42.85;;;22.10;;
29452;SDS011;16424;50.956;5.320;2023-02-13T06:27:48;64.07;;;25.70;;
29452;SDS011;16424;50.956;5.320;2023-02-13T06:30:14;44.35;;;23.20;;
29452;SDS011;16424;50.956;5.320;2023-02-13T06:32:41;81.80;;;26.02;;
29452;SDS011;16424;50.956;5.320;2023-02-13T06:35:07;118.85;;;44.15;;
29452;SDS011;16424;50.956;5.320;2023-02-13T06:37:33;80.95;;;35.05;;
29452;SDS011;16424;50.956;5.320;2023-02-13T06:39:59;83.28;;;26.98;;
29452;SDS011;16424;50.956;5.320;2023-02-13T06:42:26;88.65;;;30.10;;
29452;SDS011;16424;50.956;5.320;2023-02-13T06:44:52;89.85;;;32.78;;
29452;SDS011;16424;50.956;5.320;2023-02-13T06:47:17;63.35;;;29.73;;
29452;SDS011;16424;50.956;5.320;2023-02-13T06:49:43;56.50;;;27.42;;
29452;SDS011;16424;50.956;5.320;2023-02-13T06:52:09;67.63;;;28.80;;
29452;SDS011;16424;50.956;5.320;2023-02-13T06:54:34;49.28;;;26.23;;
29452;SDS011;16424;50.956;5.320;2023-02-13T06:57:00;52.53;;;25.23;;
29452;SDS011;16424;50.956;5.320;2023-02-13T06:59:26;87.65;;;27.98;;
29452;SDS011;16424;50.956;5.320;2023-02-13T07:01:51;69.07;;;28.67;;
29452;SDS011;16424;50.956;5.320;2023-02-13T07:04:17;78.10;;;30.13;;
29452;SDS011;16424;50.956;5.320;2023-02-13T07:06:42;81.72;;;28.85;;
29452;SDS011;16424;50.956;5.320;2023-02-13T07:09:08;58.75;;;26.10;;
29452;SDS011;16424;50.956;5.320;2023-02-13T07:11:37;77.60;;;27.33;;
29452;SDS011;16424;50.956;5.320;2023-02-13T07:14:03;347.58;;;44.10;;
29452;SDS011;16424;50.956;5.320;2023-02-13T07:16:30;195.90;;;36.38;;
29452;SDS011;16424;50.956;5.320;2023-02-13T07:18:56;121.70;;;33.17;;
29452;SDS011;16424;50.956;5.320;2023-02-13T07:21:22;152.07;;;38.45;;
29452;SDS011;16424;50.956;5.320;2023-02-13T07:23:47;221.48;;;40.95;;
29452;SDS011;16424;50.956;5.320;2023-02-13T07:26:13;130.07;;;38.83;;
29452;SDS011;16424;50.956;5.320;2023-02-13T07:28:40;104.43;;;33.58;;
29452;SDS011;16424;50.956;5.320;2023-02-13T07:31:05;81.22;;;34.00;;
29452;SDS011;16424;50.956;5.320;2023-02-13T07:33:32;149.73;;;39.47;;
29452;SDS011;16424;50.956;5.320;2023-02-13T07:35:58;90.72;;;33.70;;
29452;SDS011;16424;50.956;5.320;2023-02-13T07:38:24;218.48;;;41.58;;
29452;SDS011;16424;50.956;5.320;2023-02-13T07:40:50;104.05;;;34.17;;
29452;SDS011;16424;50.956;5.320;2023-02-13T07:43:16;406.40;;;54.58;;
29452;SDS011;16424;50.956;5.320;2023-02-13T07:45:41;240.57;;;50.13;;
29452;SDS011;16424;50.956;5.320;2023-02-13T07:48:07;101.53;;;35.13;;
29452;SDS011;16424;50.956;5.320;2023-02-13T07:50:32;82.55;;;34.13;;
29452;SDS011;16424;50.956;5.320;2023-02-13T07:52:59;348.98;;;54.42;;
29452;SDS011;16424;50.956;5.320;2023-02-13T07:55:26;244.73;;;42.25;;
29452;SDS011;16424;50.956;5.320;2023-02-13T07:57:53;99.78;;;32.58;;
29452;SDS011;16424;50.956;5.320;2023-02-13T08:00:19;70.10;;;27.80;;
29452;SDS011;16424;50.956;5.320;2023-02-13T08:02:46;83.82;;;24.30;;
29452;SDS011;16424;50.956;5.320;2023-02-13T08:05:12;51.78;;;20.98;;
29452;SDS011;16424;50.956;5.320;2023-02-13T08:07:38;30.38;;;18.70;;
29452;SDS011;16424;50.956;5.320;2023-02-13T08:10:05;33.88;;;18.98;;
29452;SDS011;16424;50.956;5.320;2023-02-13T08:12:50;37.08;;;17.55;;
29452;SDS011;16424;50.956;5.320;2023-02-13T08:15:17;28.65;;;15.93;;
29452;SDS011;16424;50.956;5.320;2023-02-13T08:17:42;25.10;;;16.60;;
29452;SDS011;16424;50.956;5.320;2023-02-13T08:20:08;23.30;;;14.85;;
29452;SDS011;16424;50.956;5.320;2023-02-13T08:22:35;22.77;;;15.15;;
29452;SDS011;16424;50.956;5.320;2023-02-13T08:25:03;24.35;;;15.60;;
29452;SDS011;16424;50.956;5.320;2023-02-13T08:27:30;30.20;;;14.95;;
29452;SDS011;16424;50.956;5.320;2023-02-13T08:29:56;22.25;;;14.18;;
29452;SDS011;16424;50.956;5.320;2023-02-13T08:32:22;24.35;;;13.90;;
29452;SDS011;16424;50.956;5.320;2023-02-13T08:34:48;21.80;;;13.10;;
29452;SDS011;16424;50.956;5.320;2023-02-13T08:37:14;22.38;;;14.25;;
29452;SDS011;16424;50.956;5.320;2023-02-13T08:39:40;23.17;;;13.35;;
29452;SDS011;16424;50.956;5.320;2023-02-13T08:42:05;24.23;;;14.18;;
29452;SDS011;16424;50.956;5.320;2023-02-13T08:44:31;23.92;;;14.48;;
29452;SDS011;16424;50.956;5.320;2023-02-13T08:46:57;24.77;;;13.05;;
29452;SDS011;16424;50.956;5.320;2023-02-13T08:49:25;19.90;;;13.45;;
29452;SDS011;16424;50.956;5.320;2023-02-13T08:51:50;22.95;;;14.60;;
29452;SDS011;16424;50.956;5.320;2023-02-13T08:54:16;31.02;;;16.20;;
29452;SDS011;16424;50.956;5.320;2023-02-13T08:56:42;25.05;;;15.35;;
29452;SDS011;16424;50.956;5.320;2023-02-13T08:59:07;26.70;;;16.10;;
29452;SDS011;16424;50.956;5.320;2023-02-13T09:01:33;26.15;;;15.93;;
29452;SDS011;16424;50.956;5.320;2023-02-13T09:03:59;27.30;;;15.85;;
29452;SDS011;16424;50.956;5.320;2023-02-13T09:06:24;26.80;;;15.15;;
29452;SDS011;16424;50.956;5.320;2023-02-13T09:08:51;26.27;;;15.30;;
29452;SDS011;16424;50.956;5.320;2023-02-13T09:11:17;22.25;;;13.40;;
29452;SDS011;16424;50.956;5.320;2023-02-13T09:13:44;22.33;;;13.90;;
29452;SDS011;16424;50.956;5.320;2023-02-13T09:16:10;25.65;;;14.73;;
29452;SDS011;16424;50.956;5.320;2023-02-13T09:18:36;24.15;;;14.60;;
29452;SDS011;16424;50.956;5.320;2023-02-13T09:21:05;22.50;;;15.13;;
29452;SDS011;16424;50.956;5.320;2023-02-13T09:23:34;33.55;;;15.93;;
29452;SDS011;16424;50.956;5.320;2023-02-13T09:26:02;25.50;;;14.50;;
29452;SDS011;16424;50.956;5.320;2023-02-13T09:28:30;34.75;;;15.57;;
29452;SDS011;16424;50.956;5.320;2023-02-13T09:30:57;28.33;;;14.48;;
29452;SDS011;16424;50.956;5.320;2023-02-13T09:33:23;22.70;;;13.18;;
29452;SDS011;16424;50.956;5.320;2023-02-13T09:35:50;25.15;;;13.40;;
29452;SDS011;16424;50.956;5.320;2023-02-13T09:38:16;22.58;;;14.35;;
29452;SDS011;16424;50.956;5.320;2023-02-13T09:40:44;22.23;;;12.43;;
29452;SDS011;16424;50.956;5.320;2023-02-13T09:43:26;22.13;;;12.73;;
29452;SDS011;16424;50.956;5.320;2023-02-13T09:45:55;23.80;;;12.90;;
29452;SDS011;16424;50.956;5.320;2023-02-13T09:48:29;19.10;;;13.23;;
29452;SDS011;16424;50.956;5.320;2023-02-13T09:50:57;18.42;;;12.88;;
29452;SDS011;16424;50.956;5.320;2023-02-13T09:53:25;22.40;;;12.60;;
29452;SDS011;16424;50.956;5.320;2023-02-13T09:58:42;20.17;;;12.40;;
29452;SDS011;16424;50.956;5.320;2023-02-13T10:06:42;21.00;;;12.35;;
29452;SDS011;16424;50.956;5.320;2023-02-13T10:09:30;34.15;;;13.15;;
29452;SDS011;16424;50.956;5.320;2023-02-13T10:12:36;20.13;;;11.65;;
29452;SDS011;16424;50.956;5.320;2023-02-13T10:18:21;24.73;;;13.88;;
29452;SDS011;16424;50.956;5.320;2023-02-13T10:20:56;22.55;;;13.15;;
29452;SDS011;16424;50.956;5.320;2023-02-13T10:26:39;20.75;;;12.82;;
29452;SDS011;16424;50.956;5.320;2023-02-13T10:29:22;22.17;;;14.02;;
29452;SDS011;16424;50.956;5.320;2023-02-13T10:32:13;21.80;;;12.82;;
29452;SDS011;16424;50.956;5.320;2023-02-13T10:34:44;27.10;;;13.32;;
29452;SDS011;16424;50.956;5.320;2023-02-13T10:37:15;21.58;;;14.30;;
29452;SDS011;16424;50.956;5.320;2023-02-13T10:39:51;17.10;;;11.82;;
29452;SDS011;16424;50.956;5.320;2023-02-13T10:45:42;20.63;;;11.50;;
29452;SDS011;16424;50.956;5.320;2023-02-13T10:50:41;20.60;;;12.60;;
29452;SDS011;16424;50.956;5.320;2023-02-13T10:59:42;16.55;;;11.02;;
29452;SDS011;16424;50.956;5.320;2023-02-13T11:04:57;16.33;;;9.25;;
29452;SDS011;16424;50.956;5.320;2023-02-13T11:07:25;13.50;;;9.35;;
29452;SDS011;16424;50.956;5.320;2023-02-13T11:09:53;16.95;;;9.30;;
29452;SDS011;16424;50.956;5.320;2023-02-13T11:14:54;13.45;;;8.82;;
29452;SDS011;16424;50.956;5.320;2023-02-13T11:17:22;18.42;;;9.02;;
29452;SDS011;16424;50.956;5.320;2023-02-13T11:19:53;12.45;;;8.73;;
29452;SDS011;16424;50.956;5.320;2023-02-13T11:22:31;12.45;;;8.05;;
29452;SDS011;16424;50.956;5.320;2023-02-13T11:25:03;16.25;;;8.52;;
29452;SDS011;16424;50.956;5.320;2023-02-13T11:27:33;16.48;;;8.82;;
29452;SDS011;16424;50.956;5.320;2023-02-13T11:30:03;15.93;;;8.00;;
29452;SDS011;16424;50.956;5.320;2023-02-13T11:33:31;14.10;;;8.25;;
29452;SDS011;16424;50.956;5.320;2023-02-13T11:35:41;18.67;;;8.68;;
29452;SDS011;16424;50.956;5.320;2023-02-13T11:40:45;12.05;;;7.85;;
29452;SDS011;16424;50.956;5.320;2023-02-13T11:43:22;11.80;;;7.10;;
29452;SDS011;16424;50.956;5.320;2023-02-13T11:49:14;12.07;;;7.10;;
29452;SDS011;16424;50.956;5.320;2023-02-13T11:51:44;8.57;;;6.18;;
29452;SDS011;16424;50.956;5.320;2023-02-13T11:54:44;13.23;;;6.85;;
29452;SDS011;16424;50.956;5.320;2023-02-13T11:59:51;13.98;;;8.40;;
29452;SDS011;16424;50.956;5.320;2023-02-13T12:02:18;9.48;;;6.70;;
29452;SDS011;16424;50.956;5.320;2023-02-13T12:04:47;10.05;;;6.70;;
29452;SDS011;16424;50.956;5.320;2023-02-13T12:15:57;10.88;;;6.18;;
29452;SDS011;16424;50.956;5.320;2023-02-13T12:24:25;11.55;;;6.72;;
29452;SDS011;16424;50.956;5.320;2023-02-13T12:40:28;9.98;;;6.38;;
29452;SDS011;16424;50.956;5.320;2023-02-13T12:46:13;11.43;;;6.53;;
29452;SDS011;16424;50.956;5.320;2023-02-13T12:51:40;14.38;;;5.93;;
29452;SDS011;16424;50.956;5.320;2023-02-13T13:05:44;9.13;;;5.55;;
29452;SDS011;16424;50.956;5.320;2023-02-13T13:08:12;13.85;;;5.70;;
29452;SDS011;16424;50.956;5.320;2023-02-13T13:22:03;13.02;;;6.07;;
29452;SDS011;16424;50.956;5.320;2023-02-13T13:27:16;7.53;;;5.20;;
29452;SDS011;16424;50.956;5.320;2023-02-13T13:30:15;9.75;;;5.40;;
29452;SDS011;16424;50.956;5.320;2023-02-13T13:32:47;6.80;;;4.90;;
29452;SDS011;16424;50.956;5.320;2023-02-13T13:35:18;8.75;;;5.00;;
29452;SDS011;16424;50.956;5.320;2023-02-13T13:37:48;8.25;;;5.40;;
29452;SDS011;16424;50.956;5.320;2023-02-13T13:46:01;8.82;;;5.03;;
29452;SDS011;16424;50.956;5.320;2023-02-13T13:48:35;10.18;;;6.25;;
29452;SDS011;16424;50.956;5.320;2023-02-13T13:51:19;7.75;;;5.55;;
29452;SDS011;16424;50.956;5.320;2023-02-13T13:57:02;10.82;;;5.63;;
29452;SDS011;16424;50.956;5.320;2023-02-13T13:59:19;9.43;;;5.80;;
29452;SDS011;16424;50.956;5.320;2023-02-13T14:07:47;7.15;;;4.20;;
29452;SDS011;16424;50.956;5.320;2023-02-13T14:12:47;9.77;;;5.22;;
29452;SDS011;16424;50.956;5.320;2023-02-13T14:18:05;9.68;;;4.82;;
29452;SDS011;16424;50.956;5.320;2023-02-13T14:26:12;7.05;;;4.15;;
29452;SDS011;16424;50.956;5.320;2023-02-13T14:33:55;7.55;;;4.53;;
29452;SDS011;16424;50.956;5.320;2023-02-13T14:36:27;8.13;;;4.95;;
29452;SDS011;16424;50.956;5.320;2023-02-13T14:39:02;8.00;;;4.75;;
29452;SDS011;16424;50.956;5.320;2023-02-13T14:44:26;9.43;;;4.70;;
29452;SDS011;16424;50.956;5.320;2023-02-13T14:47:11;11.48;;;5.22;;
29452;SDS011;16424;50.956;5.320;2023-02-13T14:49:44;8.95;;;4.90;;
29452;SDS011;16424;50.956;5.320;2023-02-13T14:52:18;7.63;;;4.90;;
29452;SDS011;16424;50.956;5.320;2023-02-13T14:55:12;9.77;;;4.93;;
29452;SDS011;16424;50.956;5.320;2023-02-13T14:57:58;8.70;;;4.35;;
29452;SDS011;16424;50.956;5.320;2023-02-13T15:00:52;11.52;;;5.07;;
29452;SDS011;16424;50.956;5.320;2023-02-13T15:03:22;9.75;;;5.03;;
29452;SDS011;16424;50.956;5.320;2023-02-13T15:06:09;8.90;;;4.55;;
29452;SDS011;16424;50.956;5.320;2023-02-13T15:08:47;5.72;;;4.25;;
29452;SDS011;16424;50.956;5.320;2023-02-13T15:17:13;8.32;;;4.28;;
29452;SDS011;16424;50.956;5.320;2023-02-13T15:19:47;11.70;;;4.72;;
29452;SDS011;16424;50.956;5.320;2023-02-13T15:22:25;7.20;;;4.50;;
29452;SDS011;16424;50.956;5.320;2023-02-13T15:24:54;7.57;;;4.53;;
29452;SDS011;16424;50.956;5.320;2023-02-13T15:27:30;8.63;;;5.55;;
29452;SDS011;16424;50.956;5.320;2023-02-13T15:30:01;8.23;;;4.40;;
29452;SDS011;16424;50.956;5.320;2023-02-13T15:32:51;10.63;;;4.55;;
29452;SDS011;16424;50.956;5.320;2023-02-13T15:37:51;6.95;;;4.50;;
29452;SDS011;16424;50.956;5.320;2023-02-13T15:42:50;9.18;;;4.13;;
29452;SDS011;16424;50.956;5.320;2023-02-13T15:45:17;11.60;;;5.35;;
29452;SDS011;16424;50.956;5.320;2023-02-13T15:47:44;10.68;;;4.50;;
29452;SDS011;16424;50.956;5.320;2023-02-13T15:50:15;9.00;;;4.53;;
29452;SDS011;16424;50.956;5.320;2023-02-13T15:52:43;9.48;;;5.20;;
29452;SDS011;16424;50.956;5.320;2023-02-13T15:55:24;7.47;;;4.20;;
29452;SDS011;16424;50.956;5.320;2023-02-13T15:57:57;8.45;;;4.05;;
29452;SDS011;16424;50.956;5.320;2023-02-13T16:02:52;10.45;;;5.40;;
29452;SDS011;16424;50.956;5.320;2023-02-13T16:05:20;11.82;;;5.00;;
29452;SDS011;16424;50.956;5.320;2023-02-13T16:07:55;14.07;;;4.85;;
29452;SDS011;16424;50.956;5.320;2023-02-13T16:13:05;7.28;;;4.90;;
29452;SDS011;16424;50.956;5.320;2023-02-13T16:15:40;13.50;;;5.18;;
29452;SDS011;16424;50.956;5.320;2023-02-13T16:18:17;6.95;;;4.32;;
29452;SDS011;16424;50.956;5.320;2023-02-13T16:20:44;10.50;;;4.55;;
29452;SDS011;16424;50.956;5.320;2023-02-13T16:23:15;6.80;;;3.88;;
29452;SDS011;16424;50.956;5.320;2023-02-13T16:25:43;12.07;;;4.40;;
29452;SDS011;16424;50.956;5.320;2023-02-13T16:28:21;10.63;;;5.20;;
29452;SDS011;16424;50.956;5.320;2023-02-13T16:31:02;11.75;;;4.03;;
29452;SDS011;16424;50.956;5.320;2023-02-13T16:33:29;11.63;;;5.40;;
29452;SDS011;16424;50.956;5.320;2023-02-13T16:36:15;12.63;;;5.00;;
29452;SDS011;16424;50.956;5.320;2023-02-13T16:43:43;17.45;;;5.68;;
29452;SDS011;16424;50.956;5.320;2023-02-13T16:54:18;13.07;;;5.05;;
29452;SDS011;16424;50.956;5.320;2023-02-13T16:59:40;14.02;;;5.30;;
29452;SDS011;16424;50.956;5.320;2023-02-13T17:07:46;24.73;;;8.70;;
29452;SDS011;16424;50.956;5.320;2023-02-13T17:10:19;23.35;;;8.43;;
29452;SDS011;16424;50.956;5.320;2023-02-13T17:12:56;21.88;;;8.57;;
29452;SDS011;16424;50.956;5.320;2023-02-13T17:15:25;20.73;;;7.40;;
29452;SDS011;16424;50.956;5.320;2023-02-13T17:17:53;18.95;;;8.07;;
29452;SDS011;16424;50.956;5.320;2023-02-13T17:20:21;22.98;;;9.10;;
29452;SDS011;16424;50.956;5.320;2023-02-13T17:22:52;18.55;;;9.55;;
29452;SDS011;16424;50.956;5.320;2023-02-13T17:25:21;30.83;;;10.30;;
29452;SDS011;16424;50.956;5.320;2023-02-13T17:27:52;36.97;;;5.95;;
29452;SDS011;16424;50.956;5.320;2023-02-13T17:30:24;19.25;;;6.05;;
29452;SDS011;16424;50.956;5.320;2023-02-13T17:33:13;16.83;;;4.35;;
29452;SDS011;16424;50.956;5.320;2023-02-13T17:35:40;12.70;;;4.60;;
29452;SDS011;16424;50.956;5.320;2023-02-13T17:38:05;10.68;;;4.38;;
29452;SDS011;16424;50.956;5.320;2023-02-13T17:40:33;9.13;;;4.10;;
29452;SDS011;16424;50.956;5.320;2023-02-13T17:43:00;12.48;;;4.28;;
29452;SDS011;16424;50.956;5.320;2023-02-13T17:45:26;7.40;;;3.85;;
29452;SDS011;16424;50.956;5.320;2023-02-13T17:47:54;6.88;;;4.78;;
29452;SDS011;16424;50.956;5.320;2023-02-13T17:50:21;11.52;;;5.22;;
29452;SDS011;16424;50.956;5.320;2023-02-13T17:52:48;15.07;;;5.38;;
29452;SDS011;16424;50.956;5.320;2023-02-13T17:55:22;11.60;;;5.63;;
29452;SDS011;16424;50.956;5.320;2023-02-13T17:57:55;13.77;;;6.03;;
29452;SDS011;16424;50.956;5.320;2023-02-13T18:00:22;10.65;;;6.50;;
29452;SDS011;16424;50.956;5.320;2023-02-13T18:02:49;15.63;;;7.90;;
29452;SDS011;16424;50.956;5.320;2023-02-13T18:05:16;20.45;;;10.82;;
29452;SDS011;16424;50.956;5.320;2023-02-13T18:07:42;26.80;;;13.68;;
29452;SDS011;16424;50.956;5.320;2023-02-13T18:10:19;15.23;;;8.57;;
29452;SDS011;16424;50.956;5.320;2023-02-13T18:12:47;29.42;;;11.32;;
29452;SDS011;16424;50.956;5.320;2023-02-13T18:15:14;19.52;;;10.75;;
29452;SDS011;16424;50.956;5.320;2023-02-13T18:17:40;20.27;;;11.77;;
29452;SDS011;16424;50.956;5.320;2023-02-13T18:20:07;26.33;;;15.52;;
29452;SDS011;16424;50.956;5.320;2023-02-13T18:22:35;33.13;;;19.42;;
29452;SDS011;16424;50.956;5.320;2023-02-13T18:25:01;29.85;;;15.93;;
29452;SDS011;16424;50.956;5.320;2023-02-13T18:27:27;29.25;;;16.65;;
29452;SDS011;16424;50.956;5.320;2023-02-13T18:29:53;22.00;;;12.57;;
29452;SDS011;16424;50.956;5.320;2023-02-13T18:32:19;30.60;;;16.77;;
29452;SDS011;16424;50.956;5.320;2023-02-13T18:34:45;31.33;;;17.88;;
29452;SDS011;16424;50.956;5.320;2023-02-13T18:37:11;32.90;;;18.95;;